Ourem, Brazil
Current Conditions -  °F | °C
As of 7:00 PM on Wednesday 28 Jan 2015 (Local Time) from SBBE Reporting Station
Scattered Clouds Scattered Clouds  
Wind Chill: 77°   Ceiling: Unl
Heat Index: 78°   Visibility: 6mi
Dew Point: 73°   Wind: 6mph
Humidity: 89%   Direction: 20°NNE
Pressure: 29.8"   Gusts: NA
Location:  1.55°S, 47.11°W
Report Text: SBBE 282200Z 02005KT 9999 SCT030 SCT100 25/23 Q1009
Loading
Personal Weather Stations






























Interactive Weather Map New forecast layout! Learn more

10-Day Weather Forecast

Advertisements
Track Severe Weather on mobile